International Virtual Aviation Organisation

Russian Federation and Kazakhstan MCD

 
URMG 250500Z 26004MPS 9999 FEW015 BKN/// 01/M01 Q1022 R26/090070 NOSIG RMK QFE752/1003
QNH:(hPa/inHg/mmHg)1022 / 30.18 / 767
QFE:(hPa/inHg/mmHg)1002 / 29.58 / 751
Temperature1
Dew Point-1
Visibility> 10000
Weather
Cloud CoverFEW (1500);
Transition Height1700 m./6200 ft.
Transition LevelFL70
SQUAWK